createdAt,value
2022-11-15T00:00:11.712Z,8.82
2022-11-15T00:01:17.351Z,8.71
2022-11-15T00:02:18.779Z,8.77
2022-11-15T00:03:23.720Z,8.79
2022-11-15T00:04:25.203Z,8.74
2022-11-15T00:05:26.700Z,8.73
2022-11-15T00:06:28.153Z,8.85
2022-11-15T00:07:54.133Z,8.84
2022-11-15T00:08:51.078Z,8.81
2022-11-15T00:09:52.471Z,8.80
2022-11-15T00:10:57.679Z,8.73
2022-11-15T00:11:59.111Z,8.70
2022-11-15T00:13:00.520Z,8.56
2022-11-15T00:14:01.966Z,8.58
2022-11-15T00:15:03.788Z,8.55
2022-11-15T00:16:05.960Z,8.66
2022-11-15T00:17:07.433Z,8.68
2022-11-15T00:18:13.570Z,8.63
2022-11-15T00:19:16.296Z,8.67
2022-11-15T00:20:18.263Z,8.61
2022-11-15T00:21:19.694Z,8.51
2022-11-15T00:22:21.162Z,8.56
2022-11-15T00:23:23.147Z,8.61
2022-11-15T00:24:24.552Z,8.62
2022-11-15T00:25:26.152Z,8.62
2022-11-15T00:26:27.586Z,8.61
2022-11-15T00:27:29.033Z,8.46
2022-11-15T00:28:31.006Z,8.50
2022-11-15T00:29:32.471Z,8.43
2022-11-15T00:30:33.875Z,8.55
2022-11-15T00:31:35.265Z,8.54
2022-11-15T00:32:36.664Z,8.55
2022-11-15T00:33:38.124Z,8.56
2022-11-15T00:34:40.909Z,8.55
2022-11-15T00:35:42.330Z,8.71
2022-11-15T00:36:43.755Z,8.74
2022-11-15T00:37:45.198Z,8.73
2022-11-15T00:38:46.697Z,8.87
2022-11-15T00:39:48.155Z,8.89
2022-11-15T00:40:49.590Z,8.87
2022-11-15T00:41:50.996Z,8.84
2022-11-15T00:42:52.441Z,8.93
2022-11-15T00:43:53.880Z,8.88
2022-11-15T00:44:55.316Z,8.95
2022-11-15T00:45:56.848Z,9.00
2022-11-15T00:46:58.478Z,9.11
2022-11-15T00:47:59.930Z,9.16
2022-11-15T00:49:01.317Z,9.12
2022-11-15T00:50:04.825Z,8.97
2022-11-15T00:51:06.473Z,9.02
2022-11-15T00:52:07.967Z,8.96
2022-11-15T00:53:09.514Z,8.84
2022-11-15T00:54:10.935Z,8.70
2022-11-15T00:55:15.047Z,8.70
2022-11-15T00:56:16.484Z,8.58
2022-11-15T00:57:17.887Z,8.53
2022-11-15T00:58:19.663Z,8.46
2022-11-15T00:59:21.112Z,8.49
2022-11-15T01:00:22.828Z,8.59
2022-11-15T01:01:24.407Z,8.59
2022-11-15T01:02:25.874Z,8.53
2022-11-15T01:03:27.299Z,8.57
2022-11-15T01:04:28.758Z,8.59
2022-11-15T01:05:31.528Z,8.52
2022-11-15T01:06:32.979Z,8.49
2022-11-15T01:07:34.496Z,8.57
2022-11-15T01:08:36.086Z,8.45
2022-11-15T01:09:37.557Z,8.51
2022-11-15T01:10:39.053Z,8.56
2022-11-15T01:11:40.474Z,8.48
2022-11-15T01:12:41.882Z,8.56
2022-11-15T01:13:43.330Z,8.49
2022-11-15T01:14:44.808Z,8.58
2022-11-15T01:15:46.251Z,8.61
2022-11-15T01:16:47.679Z,8.44
2022-11-15T01:17:49.091Z,8.37
2022-11-15T01:18:51.516Z,8.32
2022-11-15T01:19:52.954Z,8.29
2022-11-15T01:20:55.714Z,8.16
2022-11-15T01:21:57.138Z,8.09
2022-11-15T01:22:58.547Z,8.18
2022-11-15T01:23:59.978Z,8.14
2022-11-15T01:25:01.428Z,8.22
2022-11-15T01:26:03.992Z,8.19
2022-11-15T01:27:05.439Z,8.24
2022-11-15T01:28:06.889Z,8.31
2022-11-15T01:29:08.349Z,8.34
2022-11-15T01:30:10.285Z,8.31
2022-11-15T01:31:19.639Z,8.36
2022-11-15T01:32:21.095Z,8.43
2022-11-15T01:33:22.521Z,8.51
2022-11-15T01:34:23.958Z,8.69
2022-11-15T01:35:25.565Z,8.68
2022-11-15T01:36:28.341Z,8.81
2022-11-15T01:37:29.786Z,8.61
2022-11-15T01:38:31.220Z,8.69
2022-11-15T01:39:33.729Z,8.07
2022-11-15T01:40:35.284Z,7.99
2022-11-15T01:41:36.733Z,8.04
2022-11-15T01:42:38.203Z,8.38
2022-11-15T01:43:40.401Z,8.49
2022-11-15T01:44:44.803Z,8.55
2022-11-15T01:45:49.484Z,8.54
2022-11-15T01:46:50.973Z,8.59
2022-11-15T01:47:54.439Z,8.60
2022-11-15T01:48:59.317Z,8.61
2022-11-15T01:50:04.644Z,8.64
2022-11-15T01:51:09.897Z,8.65
2022-11-15T01:52:15.956Z,8.71
2022-11-15T01:53:20.113Z,8.76
2022-11-15T01:54:24.037Z,8.77
2022-11-15T01:55:28.701Z,8.76
2022-11-15T01:56:33.230Z,8.76
2022-11-15T01:57:35.316Z,8.76
2022-11-15T01:58:37.702Z,8.77
2022-11-15T01:59:43.994Z,8.72
2022-11-15T02:00:45.596Z,8.68
2022-11-15T02:01:47.759Z,8.67
2022-11-15T02:02:49.202Z,8.68
2022-11-15T02:03:56.269Z,8.68
2022-11-15T02:04:57.850Z,8.67
2022-11-15T02:05:59.999Z,8.61
2022-11-15T02:07:04.268Z,8.55
2022-11-15T02:08:07.754Z,8.58
2022-11-15T02:09:09.379Z,8.49
2022-11-15T02:10:13.681Z,8.29
2022-11-15T02:11:15.164Z,8.13
2022-11-15T02:12:21.476Z,7.98
2022-11-15T02:13:23.572Z,7.93
2022-11-15T02:14:28.309Z,7.84
2022-11-15T02:15:38.477Z,7.73
2022-11-15T02:16:45.951Z,7.55
2022-11-15T02:18:11.015Z,7.53
2022-11-15T02:19:30.263Z,7.50
2022-11-15T02:20:56.184Z,7.44
2022-11-15T02:22:11.815Z,7.47
2022-11-15T02:23:39.703Z,7.50
2022-11-15T02:25:02.136Z,7.63
2022-11-15T02:26:31.785Z,7.65
2022-11-15T02:28:07.229Z,7.61
2022-11-15T02:29:11.672Z,7.74
2022-11-15T02:30:28.535Z,7.74
2022-11-15T02:31:39.172Z,7.88
2022-11-15T02:32:48.952Z,8.07
2022-11-15T02:34:01.162Z,8.18
2022-11-15T02:35:09.112Z,8.04
2022-11-15T02:36:15.985Z,8.03
2022-11-15T02:37:27.045Z,7.99
2022-11-15T02:38:38.730Z,8.00
2022-11-15T02:39:47.489Z,8.24
2022-11-15T02:40:55.020Z,8.24
2022-11-15T02:42:03.098Z,8.26
2022-11-15T02:43:09.753Z,8.21
2022-11-15T02:44:18.505Z,8.37
2022-11-15T02:45:27.833Z,8.31
2022-11-15T02:46:35.729Z,8.35
2022-11-15T02:47:44.360Z,8.41
2022-11-15T02:48:46.374Z,8.43
2022-11-15T02:49:50.972Z,8.40
2022-11-15T02:50:53.182Z,8.42
2022-11-15T02:51:56.700Z,8.33
2022-11-15T02:52:58.329Z,8.32
2022-11-15T02:53:59.731Z,8.30
2022-11-15T02:55:02.345Z,8.33
2022-11-15T02:56:04.365Z,8.30
2022-11-15T02:57:13.266Z,8.36
2022-11-15T02:58:38.555Z,8.35
2022-11-15T02:59:59.990Z,8.25
2022-11-15T03:01:09.396Z,8.28
2022-11-15T03:02:21.317Z,8.30
2022-11-15T03:03:43.321Z,8.28
2022-11-15T03:04:51.311Z,8.23
2022-11-15T03:05:59.871Z,8.23
2022-11-15T03:07:07.806Z,8.29
2022-11-15T03:08:15.030Z,8.32
2022-11-15T03:09:28.520Z,8.27
2022-11-15T03:10:38.235Z,8.23
2022-11-15T03:11:48.219Z,8.29
2022-11-15T03:12:56.276Z,8.18
2022-11-15T03:14:01.147Z,8.19
2022-11-15T03:15:07.438Z,8.18
2022-11-15T03:16:16.580Z,8.06
2022-11-15T03:17:24.709Z,8.10
2022-11-15T03:18:32.843Z,8.18
2022-11-15T03:19:41.412Z,8.08
2022-11-15T03:20:43.740Z,8.12
2022-11-15T03:21:47.535Z,8.25
2022-11-15T03:22:51.273Z,8.25
2022-11-15T03:23:55.281Z,8.31
2022-11-15T03:25:01.745Z,8.30
2022-11-15T03:26:08.185Z,8.37
2022-11-15T03:27:13.628Z,8.41
2022-11-15T03:28:22.947Z,8.36
2022-11-15T03:29:28.852Z,8.38
2022-11-15T03:30:33.894Z,8.41
2022-11-15T03:31:50.043Z,8.37
2022-11-15T03:32:55.773Z,8.33
2022-11-15T03:33:59.901Z,8.32
2022-11-15T03:35:03.966Z,8.28
2022-11-15T03:36:06.094Z,8.29
2022-11-15T03:37:09.288Z,8.30
2022-11-15T03:38:18.019Z,8.25
2022-11-15T03:39:21.792Z,8.21
2022-11-15T03:40:30.342Z,8.32
2022-11-15T03:41:40.423Z,8.36
2022-11-15T03:42:47.724Z,8.42
2022-11-15T03:43:56.493Z,8.37
2022-11-15T03:45:03.381Z,8.43
2022-11-15T03:46:09.157Z,8.49
2022-11-15T03:47:16.579Z,8.52
2022-11-15T03:48:22.574Z,8.58
2022-11-15T03:49:29.731Z,8.49
2022-11-15T03:50:31.365Z,8.59
2022-11-15T03:51:33.048Z,8.45
2022-11-15T03:52:35.386Z,8.46
2022-11-15T03:53:36.881Z,8.37
2022-11-15T03:54:49.154Z,8.49
2022-11-15T03:55:50.663Z,8.31
2022-11-15T03:56:52.157Z,8.34
2022-11-15T03:57:57.195Z,8.15
2022-11-15T03:58:58.695Z,8.05
2022-11-15T04:00:00.116Z,7.81
2022-11-15T04:01:01.640Z,7.86
2022-11-15T04:02:03.081Z,7.86
2022-11-15T04:03:05.815Z,7.84
2022-11-15T04:04:07.222Z,7.88
2022-11-15T04:05:09.102Z,7.87
2022-11-15T04:06:10.538Z,7.93
2022-11-15T04:07:12.353Z,8.07
2022-11-15T04:08:14.083Z,8.11
2022-11-15T04:09:15.528Z,8.05
2022-11-15T04:10:17.224Z,8.12
2022-11-15T04:11:18.661Z,8.23
2022-11-15T04:12:20.066Z,8.16
2022-11-15T04:13:21.469Z,8.26
2022-11-15T04:14:22.932Z,8.21
2022-11-15T04:15:25.111Z,8.14
2022-11-15T04:16:26.627Z,8.24
2022-11-15T04:17:28.058Z,8.19
2022-11-15T04:18:30.825Z,8.14
2022-11-15T04:19:32.236Z,8.05
2022-11-15T04:20:33.711Z,8.16
2022-11-15T04:21:35.182Z,8.02
2022-11-15T04:22:36.635Z,7.93
2022-11-15T04:23:38.069Z,7.98
2022-11-15T04:24:39.515Z,7.92
2022-11-15T04:25:42.390Z,7.92
2022-11-15T04:26:43.833Z,7.90
2022-11-15T04:27:45.278Z,7.96
2022-11-15T04:28:46.775Z,7.90
2022-11-15T04:29:48.210Z,7.70
2022-11-15T04:30:49.983Z,7.90
2022-11-15T04:31:51.445Z,7.68
2022-11-15T04:32:52.883Z,7.83
2022-11-15T04:33:56.683Z,7.88
2022-11-15T04:34:58.116Z,7.99
2022-11-15T04:35:59.563Z,7.83
2022-11-15T04:37:00.982Z,7.87
2022-11-15T04:38:04.949Z,7.78
2022-11-15T04:39:06.445Z,7.79
2022-11-15T04:40:09.216Z,7.66
2022-11-15T04:41:10.651Z,7.75
2022-11-15T04:42:12.208Z,7.84
2022-11-15T04:43:13.606Z,7.89
2022-11-15T04:44:15.050Z,7.91
2022-11-15T04:45:16.657Z,8.11
2022-11-15T04:46:18.383Z,8.01
2022-11-15T04:47:19.810Z,7.66
2022-11-15T04:48:21.318Z,7.12
2022-11-15T04:49:24.144Z,6.92
2022-11-15T04:50:25.600Z,7.03
2022-11-15T04:51:27.167Z,7.38
2022-11-15T04:52:28.597Z,7.58
2022-11-15T04:53:30.326Z,7.72
2022-11-15T04:54:32.025Z,7.19
2022-11-15T04:55:33.569Z,7.33
2022-11-15T04:56:35.050Z,7.36
2022-11-15T04:57:36.641Z,7.36
2022-11-15T04:58:38.692Z,7.34
2022-11-15T04:59:40.185Z,7.45
2022-11-15T05:00:41.657Z,7.42
2022-11-15T05:01:45.011Z,7.47
2022-11-15T05:02:46.820Z,7.57
2022-11-15T05:03:48.315Z,7.14
2022-11-15T05:04:51.085Z,7.24
2022-11-15T05:05:52.523Z,7.39
2022-11-15T05:06:54.059Z,7.32
2022-11-15T05:07:55.559Z,6.92
2022-11-15T05:08:57.377Z,6.81
2022-11-15T05:09:58.837Z,7.02
2022-11-15T05:11:00.299Z,7.04
2022-11-15T05:12:01.743Z,7.03
2022-11-15T05:13:03.168Z,7.17
2022-11-15T05:14:04.604Z,7.17
2022-11-15T05:15:07.250Z,7.25
2022-11-15T05:16:08.670Z,7.19
2022-11-15T05:17:10.068Z,7.16
2022-11-15T05:18:11.695Z,7.32
2022-11-15T05:19:13.344Z,7.44
2022-11-15T05:20:16.297Z,7.12
2022-11-15T05:21:18.309Z,6.84
2022-11-15T05:22:20.159Z,6.89
2022-11-15T05:23:21.645Z,6.71
2022-11-15T05:24:23.068Z,6.54
2022-11-15T05:25:25.148Z,6.40
2022-11-15T05:26:26.835Z,6.28
2022-11-15T05:27:28.277Z,6.17
2022-11-15T05:28:29.935Z,6.07
2022-11-15T05:29:31.431Z,6.11
2022-11-15T05:30:32.878Z,6.18
2022-11-15T05:31:34.330Z,6.17
2022-11-15T05:32:35.771Z,6.15
2022-11-15T05:33:39.402Z,6.35
2022-11-15T05:34:41.138Z,6.55
2022-11-15T05:35:49.832Z,6.67
2022-11-15T05:36:51.460Z,6.74
2022-11-15T05:37:52.903Z,6.84
2022-11-15T05:38:54.768Z,6.92
2022-11-15T05:39:56.162Z,7.05
2022-11-15T05:40:57.842Z,6.97
2022-11-15T05:42:05.209Z,6.98
2022-11-15T05:43:06.980Z,6.99
2022-11-15T05:44:11.243Z,7.01
2022-11-15T05:45:12.786Z,7.11
2022-11-15T05:46:14.707Z,7.12
2022-11-15T05:47:20.494Z,6.99
2022-11-15T05:48:21.969Z,7.02
2022-11-15T05:49:28.086Z,7.09
2022-11-15T05:50:29.532Z,7.24
2022-11-15T05:51:32.414Z,7.31
2022-11-15T05:52:37.960Z,7.35
2022-11-15T05:53:39.450Z,7.21
2022-11-15T05:54:41.702Z,7.33
2022-11-15T05:55:43.347Z,7.45
2022-11-15T05:56:44.942Z,7.39
2022-11-15T05:57:46.432Z,7.35
2022-11-15T05:58:48.074Z,7.12
2022-11-15T05:59:49.569Z,6.99
2022-11-15T06:00:51.204Z,7.26
2022-11-15T06:01:52.695Z,7.38
2022-11-15T06:02:54.198Z,7.26
2022-11-15T06:03:55.694Z,7.34
2022-11-15T06:04:57.196Z,7.21
2022-11-15T06:05:58.762Z,7.20
2022-11-15T06:07:01.572Z,7.16
2022-11-15T06:08:03.294Z,7.38
2022-11-15T06:09:04.732Z,7.50
2022-11-15T06:10:07.443Z,7.56
2022-11-15T06:11:08.893Z,7.63
2022-11-15T06:12:10.414Z,7.66
2022-11-15T06:13:11.903Z,7.72
2022-11-15T06:14:13.339Z,7.73
2022-11-15T06:15:14.892Z,7.72
2022-11-15T06:16:16.295Z,7.68
2022-11-15T06:17:17.728Z,7.73
2022-11-15T06:18:19.157Z,7.78
2022-11-15T06:19:20.589Z,7.67
2022-11-15T06:20:22.012Z,7.76
2022-11-15T06:21:23.837Z,7.84
2022-11-15T06:22:26.603Z,7.74
2022-11-15T06:23:28.982Z,7.79
2022-11-15T06:24:30.599Z,7.82
2022-11-15T06:25:32.484Z,7.78
2022-11-15T06:26:33.966Z,7.92
2022-11-15T06:27:35.468Z,7.98
2022-11-15T06:28:36.887Z,7.91
2022-11-15T06:29:38.392Z,7.66
2022-11-15T06:30:39.958Z,7.66
2022-11-15T06:31:41.457Z,7.84
2022-11-15T06:32:42.915Z,7.29
2022-11-15T06:33:44.351Z,6.97
2022-11-15T06:34:45.778Z,6.93
2022-11-15T06:35:47.222Z,7.30
2022-11-15T06:36:48.680Z,7.35
2022-11-15T06:37:51.469Z,7.30
2022-11-15T06:38:52.928Z,7.40
2022-11-15T06:39:54.375Z,7.40
2022-11-15T06:40:55.831Z,7.39
2022-11-15T06:41:57.260Z,7.53
2022-11-15T06:42:59.610Z,7.61
2022-11-15T06:44:01.158Z,7.61
2022-11-15T06:45:03.420Z,7.67
2022-11-15T06:46:06.379Z,7.68
2022-11-15T06:47:07.820Z,7.50
2022-11-15T06:48:09.258Z,7.51
2022-11-15T06:49:10.699Z,7.68
2022-11-15T06:50:12.127Z,7.76
2022-11-15T06:51:13.554Z,7.78
2022-11-15T06:52:15.196Z,7.80
2022-11-15T06:53:18.001Z,7.51
2022-11-15T06:54:19.416Z,7.27
2022-11-15T06:55:21.085Z,7.16
2022-11-15T06:56:22.508Z,7.04
2022-11-15T06:57:23.936Z,7.29
2022-11-15T06:58:25.401Z,7.41
2022-11-15T06:59:26.803Z,7.53
2022-11-15T07:00:28.522Z,7.68
2022-11-15T07:01:30.079Z,7.79
2022-11-15T07:02:31.798Z,7.92
2022-11-15T07:03:36.211Z,7.59
2022-11-15T07:04:37.633Z,7.29
2022-11-15T07:05:39.092Z,7.34
2022-11-15T07:06:40.506Z,7.57
2022-11-15T07:07:42.047Z,7.69
2022-11-15T07:08:44.807Z,7.82
2022-11-15T07:09:46.207Z,7.84
2022-11-15T07:10:47.714Z,7.62
2022-11-15T07:11:49.188Z,7.57
2022-11-15T07:12:51.072Z,7.64
2022-11-15T07:13:52.479Z,7.78
2022-11-15T07:14:53.944Z,7.93
2022-11-15T07:15:55.660Z,8.02
2022-11-15T07:16:57.109Z,8.09
2022-11-15T07:18:01.520Z,8.03
2022-11-15T07:19:02.938Z,7.86
2022-11-15T07:20:05.435Z,7.92
2022-11-15T07:21:08.551Z,7.87
2022-11-15T07:22:09.984Z,7.79
2022-11-15T07:23:11.460Z,7.61
2022-11-15T07:24:14.249Z,7.39
2022-11-15T07:25:15.857Z,7.54
2022-11-15T07:26:17.480Z,7.37
2022-11-15T07:27:19.226Z,7.52
2022-11-15T07:28:20.730Z,7.63
2022-11-15T07:29:22.157Z,7.64
2022-11-15T07:30:24.028Z,7.73
2022-11-15T07:31:25.455Z,7.71
2022-11-15T07:32:27.052Z,7.81
2022-11-15T07:33:28.694Z,7.70
2022-11-15T07:34:30.335Z,7.47
2022-11-15T07:35:31.794Z,7.79
2022-11-15T07:36:33.230Z,7.86
2022-11-15T07:37:34.656Z,8.00
2022-11-15T07:38:42.172Z,8.22
2022-11-15T07:39:45.522Z,8.30
2022-11-15T07:40:47.780Z,8.48
2022-11-15T07:41:49.195Z,8.61
2022-11-15T07:42:50.646Z,8.76
2022-11-15T07:43:52.523Z,8.80
2022-11-15T07:44:54.023Z,8.86
2022-11-15T07:45:59.155Z,8.86
2022-11-15T07:47:01.105Z,8.82
2022-11-15T07:48:02.700Z,8.94
2022-11-15T07:49:04.818Z,9.05
2022-11-15T07:50:06.888Z,8.80
2022-11-15T07:51:13.993Z,8.40
2022-11-15T07:52:16.052Z,8.75
2022-11-15T07:53:17.528Z,8.82
2022-11-15T07:54:18.989Z,8.83
2022-11-15T07:55:21.836Z,9.01
2022-11-15T07:56:23.276Z,9.11
2022-11-15T07:57:24.711Z,9.20
2022-11-15T07:58:26.180Z,8.97
2022-11-15T07:59:27.596Z,9.01
2022-11-15T08:00:29.200Z,9.10
2022-11-15T08:01:30.673Z,9.15
2022-11-15T08:02:32.551Z,9.09
2022-11-15T08:03:34.723Z,9.11
2022-11-15T08:04:36.398Z,8.91
2022-11-15T08:05:39.574Z,8.98
2022-11-15T08:06:41.104Z,9.05
2022-11-15T08:07:42.653Z,9.01
2022-11-15T08:08:44.087Z,9.12
2022-11-15T08:09:45.517Z,9.21
2022-11-15T08:10:48.331Z,9.14
2022-11-15T08:11:49.734Z,9.25
2022-11-15T08:12:58.053Z,9.18
2022-11-15T08:13:59.833Z,9.07
2022-11-15T08:15:01.390Z,9.01
2022-11-15T08:16:04.030Z,9.21
2022-11-15T08:17:05.452Z,9.09
2022-11-15T08:18:11.160Z,9.12
2022-11-15T08:19:12.607Z,8.95
2022-11-15T08:20:14.661Z,9.18
2022-11-15T08:21:19.837Z,9.18
2022-11-15T08:22:21.306Z,8.99
2022-11-15T08:23:22.767Z,9.11
2022-11-15T08:24:24.281Z,9.24
2022-11-15T08:25:26.622Z,9.20
2022-11-15T08:26:29.517Z,9.08
2022-11-15T08:27:31.226Z,9.00
2022-11-15T08:28:33.390Z,9.00
2022-11-15T08:29:34.834Z,9.15
2022-11-15T08:30:39.066Z,9.26
2022-11-15T08:31:40.612Z,9.21
2022-11-15T08:32:42.042Z,9.45
2022-11-15T08:33:44.272Z,9.68
2022-11-15T08:34:45.690Z,9.88
2022-11-15T08:35:47.236Z,9.93
2022-11-15T08:36:48.728Z,9.93
2022-11-15T08:37:50.180Z,9.65
2022-11-15T08:38:51.623Z,9.70
2022-11-15T08:39:53.103Z,9.57
2022-11-15T08:41:02.174Z,9.53
2022-11-15T08:42:05.043Z,9.28
2022-11-15T08:43:06.672Z,9.53
2022-11-15T08:44:08.104Z,9.47
2022-11-15T08:45:10.559Z,9.48
2022-11-15T08:46:13.879Z,9.79
2022-11-15T08:47:15.323Z,9.76
2022-11-15T08:48:16.760Z,9.70
2022-11-15T08:49:18.210Z,9.51
2022-11-15T08:50:19.642Z,9.34
2022-11-15T08:51:21.139Z,9.57
2022-11-15T08:52:22.634Z,9.49
2022-11-15T08:53:24.083Z,9.79
2022-11-15T08:54:25.507Z,9.86
2022-11-15T08:55:26.953Z,9.62
2022-11-15T08:56:28.414Z,9.63
2022-11-15T08:57:31.369Z,9.72
2022-11-15T08:58:33.127Z,9.90
2022-11-15T08:59:34.752Z,9.93
2022-11-15T09:00:36.307Z,9.88
2022-11-15T09:01:37.818Z,9.75
2022-11-15T09:02:39.539Z,9.73
2022-11-15T09:03:41.409Z,10.04
2022-11-15T09:04:43.670Z,10.04
2022-11-15T09:05:45.104Z,10.13
2022-11-15T09:06:46.589Z,10.24
2022-11-15T09:07:48.275Z,10.15
2022-11-15T09:08:49.695Z,10.29
2022-11-15T09:09:51.090Z,10.11
2022-11-15T09:10:52.632Z,10.03
2022-11-15T09:11:58.052Z,10.15
2022-11-15T09:13:03.875Z,10.17
2022-11-15T09:14:05.364Z,10.16
2022-11-15T09:15:07.904Z,10.10
2022-11-15T09:16:09.317Z,10.20
2022-11-15T09:17:11.083Z,10.21
2022-11-15T09:18:12.571Z,10.19
2022-11-15T09:19:14.010Z,10.36
2022-11-15T09:20:16.329Z,10.24
2022-11-15T09:21:17.727Z,10.30
2022-11-15T09:22:19.292Z,10.08
2022-11-15T09:23:20.736Z,10.09
2022-11-15T09:24:22.173Z,10.33
2022-11-15T09:25:23.638Z,10.31
2022-11-15T09:26:25.573Z,9.91
2022-11-15T09:27:28.362Z,10.23
2022-11-15T09:28:31.833Z,9.86
2022-11-15T09:29:33.583Z,10.13
2022-11-15T09:30:35.244Z,10.13
2022-11-15T09:31:37.095Z,9.98
2022-11-15T09:32:39.526Z,9.80
2022-11-15T09:33:41.084Z,9.84
2022-11-15T09:34:42.545Z,9.86
2022-11-15T09:35:43.960Z,9.83
2022-11-15T09:36:45.455Z,9.81
2022-11-15T09:37:47.020Z,9.81
2022-11-15T09:38:49.196Z,10.24
2022-11-15T09:39:50.694Z,9.83
2022-11-15T09:41:09.055Z,10.51
2022-11-15T09:42:24.987Z,10.48
2022-11-15T09:43:39.019Z,10.36
2022-11-15T09:44:53.604Z,10.12
2022-11-15T09:46:06.313Z,10.18
2022-11-15T09:47:35.730Z,10.18
2022-11-15T09:48:50.775Z,10.23
2022-11-15T09:49:56.707Z,10.41
2022-11-15T09:50:59.508Z,10.51
2022-11-15T09:52:01.440Z,10.40
2022-11-15T09:53:03.121Z,10.38
2022-11-15T09:55:40.915Z,10.48
2022-11-15T09:56:44.850Z,10.39
2022-11-15T09:57:53.997Z,10.54
2022-11-15T09:59:09.468Z,10.66
2022-11-15T10:00:48.206Z,10.78
2022-11-15T10:01:45.832Z,11.18
2022-11-15T10:03:05.350Z,10.84
2022-11-15T10:04:10.809Z,10.78
2022-11-15T10:05:21.579Z,10.53
2022-11-15T10:06:26.006Z,10.66
2022-11-15T10:07:32.224Z,10.74
2022-11-15T10:08:54.424Z,10.58
2022-11-15T10:10:02.371Z,10.49
2022-11-15T10:11:36.762Z,10.66
2022-11-15T10:12:30.203Z,10.52
2022-11-15T10:13:34.321Z,10.50
2022-11-15T10:14:37.563Z,10.33
2022-11-15T10:15:39.080Z,10.20
2022-11-15T10:17:07.293Z,10.39
2022-11-15T10:18:15.091Z,10.40
2022-11-15T10:19:26.684Z,10.50
2022-11-15T10:20:29.970Z,10.58
2022-11-15T10:21:51.970Z,10.63
2022-11-15T10:22:56.656Z,10.90
2022-11-15T10:23:59.417Z,10.91
2022-11-15T10:25:13.816Z,11.24
2022-11-15T10:26:17.412Z,11.49
2022-11-15T10:27:20.248Z,11.25
2022-11-15T10:28:26.730Z,11.61
2022-11-15T10:29:28.144Z,11.99
2022-11-15T10:30:36.587Z,12.02
2022-11-15T10:31:42.045Z,11.96
2022-11-15T10:32:45.409Z,12.00
2022-11-15T10:33:46.875Z,11.99
2022-11-15T10:34:49.549Z,12.06
2022-11-15T10:36:16.340Z,12.33
2022-11-15T10:37:29.428Z,12.10
2022-11-15T10:38:31.059Z,12.13
2022-11-15T10:39:32.783Z,12.16
2022-11-15T10:40:34.963Z,12.09
2022-11-15T10:41:39.169Z,11.84
2022-11-15T10:42:40.628Z,12.01
2022-11-15T10:43:42.542Z,11.83
2022-11-15T10:44:45.252Z,11.66
2022-11-15T10:45:48.272Z,11.94
2022-11-15T10:47:05.883Z,12.03
2022-11-15T10:48:24.803Z,11.61
2022-11-15T10:49:28.432Z,11.51
2022-11-15T10:50:31.786Z,11.55
2022-11-15T10:51:40.990Z,11.59
2022-11-15T10:52:47.311Z,11.50
2022-11-15T10:53:49.865Z,11.64
2022-11-15T10:54:56.010Z,11.29
2022-11-15T10:56:01.496Z,11.34
2022-11-15T10:57:08.671Z,11.78
2022-11-15T10:58:24.168Z,11.55
2022-11-15T10:59:29.115Z,11.55
2022-11-15T11:00:35.337Z,11.69
2022-11-15T11:01:47.222Z,11.94
2022-11-15T11:02:59.054Z,11.72
2022-11-15T11:04:02.320Z,11.58
2022-11-15T11:05:06.834Z,11.65
2022-11-15T11:06:11.481Z,11.37
2022-11-15T11:07:23.135Z,11.75
2022-11-15T11:08:25.660Z,12.09
2022-11-15T11:09:33.941Z,11.96
2022-11-15T11:10:52.393Z,11.86
2022-11-15T11:11:56.270Z,11.91
2022-11-15T11:13:13.884Z,11.79
2022-11-15T11:14:22.112Z,11.85
2022-11-15T11:15:28.136Z,11.94
2022-11-15T11:16:44.422Z,12.11
2022-11-15T11:18:02.617Z,12.21
2022-11-15T11:19:15.756Z,12.28
2022-11-15T11:20:26.276Z,12.37
2022-11-15T11:21:40.128Z,12.28
2022-11-15T11:22:55.918Z,12.22
2022-11-15T11:24:05.964Z,11.97
2022-11-15T11:25:27.877Z,12.26
2022-11-15T11:26:41.641Z,12.36
2022-11-15T11:28:00.242Z,12.55
2022-11-15T11:29:13.908Z,12.57
2022-11-15T11:30:19.954Z,12.67
2022-11-15T11:31:28.466Z,12.71
2022-11-15T11:32:54.813Z,12.68
2022-11-15T11:34:10.616Z,12.82
2022-11-15T11:35:15.240Z,12.90
2022-11-15T11:36:26.234Z,12.83
2022-11-15T11:37:40.350Z,12.75
2022-11-15T11:38:52.878Z,12.64
2022-11-15T11:40:19.773Z,12.57
2022-11-15T11:41:47.619Z,12.88
2022-11-15T11:42:56.535Z,13.04
2022-11-15T11:44:15.956Z,13.33
2022-11-15T11:45:27.637Z,13.09
2022-11-15T11:46:47.786Z,13.28
2022-11-15T11:47:58.503Z,13.30
2022-11-15T11:49:05.188Z,13.33
2022-11-15T11:50:14.060Z,13.29
2022-11-15T11:51:21.688Z,13.31
2022-11-15T11:52:28.886Z,13.22
2022-11-15T11:53:38.628Z,13.06
2022-11-15T11:54:48.848Z,13.10
2022-11-15T11:55:53.768Z,13.25
2022-11-15T11:56:55.888Z,13.21
2022-11-15T11:58:06.146Z,13.30
2022-11-15T11:59:17.368Z,13.21
2022-11-15T12:00:21.475Z,13.23
2022-11-15T12:01:25.446Z,13.16
2022-11-15T12:02:31.502Z,13.22
2022-11-15T12:03:40.789Z,13.18
2022-11-15T12:04:47.428Z,13.31
2022-11-15T12:05:54.320Z,13.29
2022-11-15T12:07:00.916Z,13.25
2022-11-15T12:08:10.152Z,13.33
2022-11-15T12:09:18.334Z,13.41
2022-11-15T12:10:24.708Z,13.47
2022-11-15T12:11:31.471Z,13.46
2022-11-15T12:12:39.240Z,13.51
2022-11-15T12:13:42.976Z,13.54
2022-11-15T12:14:47.818Z,13.59
2022-11-15T12:15:58.915Z,13.52
2022-11-15T12:17:00.836Z,13.46
2022-11-15T12:18:02.372Z,13.08
2022-11-15T12:19:05.342Z,12.94
2022-11-15T12:20:17.016Z,13.06
2022-11-15T12:21:28.763Z,13.03
2022-11-15T12:22:39.773Z,12.73
2022-11-15T12:23:46.783Z,12.59
2022-11-15T12:24:55.136Z,12.53
2022-11-15T12:26:01.203Z,12.46
2022-11-15T12:27:08.316Z,12.54
2022-11-15T12:28:18.653Z,12.44
2022-11-15T12:29:27.069Z,12.39
2022-11-15T12:30:41.360Z,12.37
2022-11-15T12:31:48.521Z,12.38
2022-11-15T12:32:52.952Z,12.48
2022-11-15T12:33:57.248Z,12.56
2022-11-15T12:35:01.889Z,12.47
2022-11-15T12:36:05.486Z,12.77
2022-11-15T12:37:51.902Z,12.75
2022-11-15T12:38:58.534Z,12.65
2022-11-15T12:40:25.890Z,12.44
2022-11-15T12:41:28.651Z,12.44
2022-11-15T12:42:41.383Z,12.26
2022-11-15T12:43:44.397Z,12.26
2022-11-15T12:44:59.146Z,12.39
2022-11-15T12:46:05.159Z,12.26
2022-11-15T12:47:24.414Z,12.27
2022-11-15T12:48:59.909Z,12.09
2022-11-15T12:50:03.012Z,12.20
2022-11-15T12:51:04.803Z,11.86
2022-11-15T12:52:08.941Z,11.88
2022-11-15T12:53:30.900Z,11.59
2022-11-15T12:54:55.601Z,11.37
2022-11-15T12:56:18.666Z,11.33
2022-11-15T12:57:30.212Z,11.36
2022-11-15T12:58:41.120Z,11.43
2022-11-15T12:59:50.236Z,11.35
2022-11-15T13:00:51.673Z,11.48
2022-11-15T13:01:58.584Z,11.75
2022-11-15T13:03:24.826Z,11.69
2022-11-15T13:04:29.908Z,11.44
2022-11-15T13:05:56.740Z,11.29
2022-11-15T13:07:00.230Z,11.15
2022-11-15T13:08:01.852Z,11.25
2022-11-15T13:09:03.617Z,11.18
2022-11-15T13:10:30.629Z,11.13
2022-11-15T13:11:49.609Z,11.17
2022-11-15T13:12:54.234Z,11.07
2022-11-15T13:13:55.696Z,11.09
2022-11-15T13:14:58.802Z,11.03
2022-11-15T13:16:00.618Z,10.99
2022-11-15T13:17:02.997Z,11.05
2022-11-15T13:18:28.361Z,10.74
2022-11-15T13:19:29.832Z,10.78
2022-11-15T13:20:32.852Z,10.67
2022-11-15T13:21:48.794Z,10.72
2022-11-15T13:22:51.888Z,10.79
2022-11-15T13:23:55.314Z,10.84
2022-11-15T13:24:58.159Z,10.87
2022-11-15T13:26:14.022Z,10.76
2022-11-15T13:27:18.972Z,10.71
2022-11-15T13:28:26.216Z,10.67
2022-11-15T13:29:27.680Z,10.76
2022-11-15T13:30:31.834Z,10.54
2022-11-15T13:31:37.705Z,10.50
2022-11-15T13:32:39.340Z,10.71
2022-11-15T13:33:41.170Z,10.60
2022-11-15T13:34:51.388Z,10.61
2022-11-15T13:35:55.982Z,10.62
2022-11-15T13:36:58.762Z,10.84
2022-11-15T13:38:05.130Z,10.73
2022-11-15T13:39:24.182Z,10.58
2022-11-15T13:40:28.117Z,10.83
2022-11-15T13:41:31.539Z,10.90
2022-11-15T13:42:33.010Z,10.88
2022-11-15T13:43:36.565Z,10.85
2022-11-15T13:44:38.012Z,10.69
2022-11-15T13:45:39.429Z,10.65
2022-11-15T13:46:40.874Z,10.82
2022-11-15T13:47:42.292Z,10.65
2022-11-15T13:48:45.874Z,10.71
2022-11-15T13:49:47.768Z,10.79
2022-11-15T13:50:49.260Z,10.67
2022-11-15T13:51:53.092Z,10.74
2022-11-15T13:52:59.897Z,10.75
2022-11-15T13:54:06.934Z,10.66
2022-11-15T13:55:14.453Z,10.55
2022-11-15T13:56:17.661Z,10.89
2022-11-15T13:57:23.307Z,10.61
2022-11-15T13:58:25.114Z,10.40
2022-11-15T13:59:28.308Z,10.42
2022-11-15T14:00:35.276Z,10.75
2022-11-15T14:01:37.451Z,10.59
2022-11-15T14:02:39.443Z,10.23
2022-11-15T14:03:48.223Z,10.44
2022-11-15T14:04:52.920Z,10.68
2022-11-15T14:06:06.588Z,10.88
2022-11-15T14:07:17.817Z,10.96
2022-11-15T14:08:25.064Z,10.89
2022-11-15T14:09:35.407Z,11.10
2022-11-15T14:10:38.157Z,10.97
2022-11-15T14:11:50.774Z,10.98
2022-11-15T14:12:52.380Z,10.92
2022-11-15T14:14:11.634Z,10.84
2022-11-15T14:15:26.877Z,10.61
2022-11-15T14:16:34.590Z,10.43